Time;durP1;ratioP1;P1;durP2;ratioP2;P2;SDS_P1;SDS_P2;PMS_P1;PMS_P2;Temp;Humidity;BMP_temperature;BMP_pressure;BME280_temperature;BME280_humidity;BME280_pressure;Samples;Min_cycle;Max_cycle;Signal;HPM_P1;HPM_P2
2021/12/08 00:02:15;;;;;;;2.08;1.42;;;;;;;6.15;70.97;97356.69;4945451;28;20053;-75
2021/12/08 00:04:41;;;;;;;3.20;2.17;;;;;;;6.17;71.21;97355.63;4943571;28;20054;-75
2021/12/08 00:07:07;;;;;;;1.90;1.40;;;;;;;6.14;71.06;97353.22;4944890;28;20042;-77
2021/12/08 00:14:54;;;;;;;2.95;1.40;;;;;;;6.18;70.83;97336.38;4961106;28;20082;-76
2021/12/08 00:17:19;;;;;;;5.00;1.40;;;;;;;6.21;70.91;97325.69;4962798;28;20515;-77
2021/12/08 00:19:45;;;;;;;2.00;1.20;;;;;;;6.23;71.37;97328.22;4963529;28;20066;-76
2021/12/08 00:22:10;;;;;;;2.72;1.52;;;;;;;6.27;71.09;97326.19;4929842;28;20034;-75
2021/12/08 00:24:36;;;;;;;1.83;1.40;;;;;;;6.40;70.94;97324.41;4953356;28;20047;-66
2021/12/08 00:27:02;;;;;;;2.88;1.30;;;;;;;6.63;69.84;97331.41;4965217;28;20046;-76
2021/12/08 00:29:28;;;;;;;1.65;1.20;;;;;;;6.51;70.61;97327.06;4952290;28;20545;-77
2021/12/08 00:31:53;;;;;;;1.95;1.20;;;;;;;6.46;70.87;97334.41;4963836;28;20047;-76
2021/12/08 00:34:18;;;;;;;1.83;1.38;;;;;;;6.42;71.30;97325.97;4954658;28;20027;-76
2021/12/08 00:36:48;;;;;;;2.78;1.30;;;;;;;6.40;71.18;97333.06;4953770;28;20036;-77
2021/12/08 00:39:14;;;;;;;1.45;1.10;;;;;;;6.37;71.17;97335.06;4950965;28;20031;-76
2021/12/08 00:41:40;;;;;;;1.17;1.08;;;;;;;6.38;71.48;97336.75;4950288;28;20035;-76
2021/12/08 00:44:06;;;;;;;1.58;1.08;;;;;;;6.37;71.64;97346.34;4952503;28;20043;-77
2021/12/08 00:46:31;;;;;;;1.60;1.23;;;;;;;6.34;71.66;97346.59;4951018;28;20402;-77
2021/12/08 00:48:57;;;;;;;1.27;1.10;;;;;;;6.31;71.72;97345.97;4951095;28;20035;-77
2021/12/08 00:51:22;;;;;;;2.92;1.30;;;;;;;6.31;71.44;97352.03;4951147;28;20035;-77
2021/12/08 00:53:48;;;;;;;2.47;1.40;;;;;;;6.33;71.78;97354.56;4948054;28;20122;-76
2021/12/08 00:56:13;;;;;;;2.60;1.15;;;;;;;6.31;71.44;97353.81;4948690;28;20043;-77
2021/12/08 00:58:40;;;;;;;1.13;1.00;;;;;;;6.32;72.04;97358.09;4934258;28;20039;-76
2021/12/08 01:01:09;;;;;;;1.60;1.10;;;;;;;6.30;72.20;97360.00;4949495;28;20458;-77
2021/12/08 01:03:36;;;;;;;1.48;1.27;;;;;;;6.30;72.28;97357.38;4955410;28;20043;-77
2021/12/08 01:06:03;;;;;;;1.33;1.00;;;;;;;6.35;72.33;97366.59;4956772;28;20039;-77
2021/12/08 01:08:31;;;;;;;1.15;1.02;;;;;;;6.39;72.24;97354.94;4956979;28;20031;-77
2021/12/08 01:11:09;;;;;;;0.93;0.90;;;;;;;6.42;72.30;97353.88;4957544;28;20042;-77
2021/12/08 01:13:34;;;;;;;1.08;0.98;;;;;;;6.45;72.10;97369.38;4944098;28;20035;-79
2021/12/08 01:16:00;;;;;;;1.42;1.20;;;;;;;6.46;72.18;97368.44;4961930;28;20039;-78
2021/12/08 01:18:28;;;;;;;1.48;1.10;;;;;;;6.44;72.52;97367.69;4958664;28;20449;-78
2021/12/08 01:20:56;;;;;;;1.33;1.02;;;;;;;6.48;72.54;97352.63;4962202;28;20098;-78
2021/12/08 01:23:25;;;;;;;0.90;0.90;;;;;;;6.50;72.84;97355.94;4959526;28;20038;-78
2021/12/08 01:25:50;;;;;;;1.23;1.13;;;;;;;6.51;72.55;97365.50;4956085;28;20047;-78
2021/12/08 01:28:21;;;;;;;1.55;1.35;;;;;;;6.49;72.96;97360.34;4962156;28;20043;-76
2021/12/08 01:30:48;;;;;;;1.88;1.27;;;;;;;6.49;72.83;97359.53;4954573;28;20054;-77
2021/12/08 01:33:14;;;;;;;4.72;1.23;;;;;;;6.46;73.40;97355.34;4952753;28;20027;-77
2021/12/08 01:35:40;;;;;;;1.60;1.27;;;;;;;6.46;72.73;97357.97;4952286;28;20423;-77
2021/12/08 01:38:06;;;;;;;2.22;1.40;;;;;;;6.44;73.34;97355.44;4952747;28;20071;-76
2021/12/08 01:40:31;;;;;;;2.45;1.00;;;;;;;6.45;73.21;97364.16;4955672;28;20035;-76
2021/12/08 01:42:59;;;;;;;2.80;1.10;;;;;;;6.45;73.64;97370.22;4958263;28;20051;-76
2021/12/08 01:48:13;;;;;;;5.30;1.40;;;;;;;6.49;73.67;97376.06;4956649;28;20100;-75
2021/12/08 01:50:41;;;;;;;1.98;1.10;;;;;;;6.49;73.75;97383.06;4966206;28;20141;-76
2021/12/08 01:53:07;;;;;;;3.40;1.60;;;;;;;6.50;73.71;97389.97;4974381;28;20038;-75
2021/12/08 01:55:34;;;;;;;3.47;1.40;;;;;;;6.49;73.84;97391.75;4972533;28;20406;-77
2021/12/08 01:57:59;;;;;;;2.85;1.40;;;;;;;6.50;74.01;97403.06;4972465;28;20534;-75
2021/12/08 02:00:33;;;;;;;2.50;1.23;;;;;;;6.52;73.99;97406.41;4973737;28;20035;-75
2021/12/08 02:02:59;;;;;;;2.33;1.67;;;;;;;6.50;74.07;97411.78;4940249;28;20101;-76
2021/12/08 02:05:25;;;;;;;2.13;1.55;;;;;;;6.50;74.22;97408.28;4971960;28;20526;-76
2021/12/08 02:07:51;;;;;;;6.65;1.73;;;;;;;6.52;74.33;97416.88;4957272;28;20439;-76
2021/12/08 02:10:17;;;;;;;9.48;2.05;;;;;;;6.51;74.25;97415.22;4947885;28;20050;-76
2021/12/08 02:12:42;;;;;;;2.53;1.38;;;;;;;6.55;74.07;97411.44;4938913;28;20407;-76
2021/12/08 02:15:13;;;;;;;3.78;1.55;;;;;;;6.56;74.27;97415.72;4939660;28;20039;-76
2021/12/08 02:17:39;;;;;;;4.90;1.77;;;;;;;6.56;74.28;97419.19;4946093;28;20043;-76
2021/12/08 02:20:07;;;;;;;5.07;1.98;;;;;;;6.60;74.38;97425.03;4932231;28;20047;-76
2021/12/08 02:22:33;;;;;;;3.05;1.58;;;;;;;6.57;74.44;97430.47;4928087;29;20507;-76
2021/12/08 02:24:58;;;;;;;7.30;2.53;;;;;;;6.58;74.54;97434.78;4946806;28;20110;-76
2021/12/08 02:27:24;;;;;;;12.40;2.20;;;;;;;6.60;74.62;97432.91;4942681;28;20055;-76
2021/12/08 02:30:06;;;;;;;4.28;1.95;;;;;;;6.60;74.64;97441.59;4949598;28;20111;-76
2021/12/08 02:48:54;;;;;;;4.57;2.03;;;;;;;6.66;74.49;97437.69;4954654;28;20038;-76
2021/12/08 02:51:20;;;;;;;3.92;2.00;;;;;;;6.61;74.83;97434.56;4955684;28;20039;-77
2021/12/08 02:53:47;;;;;;;8.82;2.58;;;;;;;6.61;75.00;97445.03;4954693;28;20035;-76
2021/12/08 02:56:14;;;;;;;6.10;2.30;;;;;;;6.57;74.84;97444.44;4920777;28;20062;-75
2021/12/08 02:58:40;;;;;;;5.35;2.47;;;;;;;6.56;75.23;97441.91;4949969;28;20038;-77
2021/12/08 03:01:08;;;;;;;9.15;2.75;;;;;;;6.56;75.02;97455.81;4951110;28;20407;-76
2021/12/08 03:03:34;;;;;;;3.88;1.98;;;;;;;6.56;75.17;97449.75;4953627;28;20035;-77
2021/12/08 03:05:59;;;;;;;9.18;2.35;;;;;;;6.55;74.92;97456.78;4953249;28;20131;-78
2021/12/08 03:08:25;;;;;;;8.07;2.53;;;;;;;6.56;74.75;97465.47;4942986;28;20058;-78
2021/12/08 03:10:52;;;;;;;9.07;2.05;;;;;;;6.54;74.95;97457.69;4951289;28;20038;-77
2021/12/08 03:13:19;;;;;;;9.73;2.30;;;;;;;6.56;74.86;97460.22;4952770;28;20122;-76
2021/12/08 03:15:45;;;;;;;12.45;2.75;;;;;;;6.55;74.67;97462.00;4953714;28;20103;-77
2021/12/08 03:18:11;;;;;;;12.30;3.00;;;;;;;6.56;74.53;97455.81;4954161;28;20047;-76
2021/12/08 03:20:44;;;;;;;9.10;2.95;;;;;;;6.59;74.99;97467.84;4953347;28;20102;-76
2021/12/08 03:23:16;;;;;;;4.93;2.80;;;;;;;6.60;74.56;97473.00;4954207;28;20410;-75
2021/12/08 03:25:44;;;;;;;10.73;2.33;;;;;;;6.68;74.55;97469.00;4957793;28;20132;-76
2021/12/08 03:28:24;;;;;;;9.52;3.80;;;;;;;6.70;74.48;97459.25;4956833;28;20570;-76
2021/12/08 03:31:16;;;;;;;10.65;2.47;;;;;;;6.73;73.89;97462.50;4958110;28;20035;-75
2021/12/08 03:33:36;;;;;;;9.73;2.63;;;;;;;6.76;74.16;97467.50;4958295;28;20043;-76
2021/12/08 03:36:03;;;;;;;8.77;2.90;;;;;;;6.74;74.22;97479.03;4956941;28;20063;-76
2021/12/08 03:38:29;;;;;;;14.15;2.97;;;;;;;6.73;74.42;97478.19;4955268;28;20035;-76
2021/12/08 03:40:57;;;;;;;7.70;3.17;;;;;;;6.70;74.09;97477.59;4953261;28;20117;-76
2021/12/08 03:43:22;;;;;;;8.38;2.70;;;;;;;6.64;74.21;97478.84;4951639;28;20046;-76
2021/12/08 03:45:52;;;;;;;10.77;2.90;;;;;;;6.61;73.82;97468.59;4950764;28;20035;-76
2021/12/08 03:48:29;;;;;;;4.72;2.17;;;;;;;6.57;73.65;97472.34;4951141;28;20047;-76
2021/12/08 03:50:56;;;;;;;8.93;2.65;;;;;;;6.52;73.12;97483.19;4951844;28;20046;-75
2021/12/08 03:53:22;;;;;;;9.52;2.70;;;;;;;6.52;73.25;97493.66;4951621;28;20431;-76
2021/12/08 03:55:51;;;;;;;7.07;3.20;;;;;;;6.50;73.35;97502.53;4951383;28;20031;-76
2021/12/08 03:58:18;;;;;;;11.02;3.40;;;;;;;6.47;73.04;97506.19;4953723;28;20031;-76
2021/12/08 04:00:45;;;;;;;5.82;2.75;;;;;;;6.48;73.04;97496.59;4950753;28;20467;-76
2021/12/08 04:03:12;;;;;;;10.18;2.45;;;;;;;6.48;73.36;97505.25;4954659;28;20047;-76
2021/12/08 04:05:55;;;;;;;8.52;3.00;;;;;;;6.47;73.07;97507.97;4969034;28;20054;-79
2021/12/08 04:08:31;;;;;;;10.52;3.30;;;;;;;6.50;73.22;97506.00;4980431;28;20035;-78
2021/12/08 04:10:59;;;;;;;8.80;2.72;;;;;;;6.48;73.64;97486.94;4983590;28;20491;-78
2021/12/08 04:13:34;;;;;;;6.75;2.30;;;;;;;6.46;73.37;97488.81;4978313;28;20039;-76
2021/12/08 04:16:01;;;;;;;9.73;1.85;;;;;;;6.41;73.84;97485.69;4979895;28;20041;-77
2021/12/08 04:18:26;;;;;;;8.10;2.30;;;;;;;6.37;73.88;97486.84;4976834;28;20062;-76
2021/12/08 04:20:56;;;;;;;13.50;3.38;;;;;;;6.33;74.44;97488.00;4976745;28;20034;-77
2021/12/08 04:23:26;;;;;;;7.60;3.60;;;;;;;6.22;74.86;97488.72;4975833;28;20038;-75
2021/12/08 04:25:57;;;;;;;5.28;2.10;;;;;;;6.21;74.84;97492.31;4976105;28;20070;-77
2021/12/08 04:28:29;;;;;;;11.65;2.60;;;;;;;6.15;75.61;97487.47;4979037;28;20043;-77
2021/12/08 04:31:03;;;;;;;6.57;2.13;;;;;;;6.11;75.54;97491.25;4961776;28;20038;-77
2021/12/08 04:33:30;;;;;;;10.65;2.35;;;;;;;6.07;75.38;97497.63;4979600;28;20031;-75
2021/12/08 04:35:57;;;;;;;7.43;2.63;;;;;;;6.02;75.46;97500.56;4979177;28;20078;-75
2021/12/08 04:38:35;;;;;;;8.45;2.95;;;;;;;5.97;75.71;97516.53;4984322;28;20091;-75
2021/12/08 04:41:07;;;;;;;7.15;3.25;;;;;;;5.94;75.70;97515.94;4988853;28;20046;-77
2021/12/08 04:43:58;;;;;;;12.40;3.70;;;;;;;5.89;75.18;97513.59;4975161;28;20039;-76
2021/12/08 04:49:19;;;;;;;6.47;2.60;;;;;;;5.86;75.53;97520.78;4974836;28;20039;-76
2021/12/08 04:51:59;;;;;;;7.47;3.10;;;;;;;5.86;74.95;97523.38;4976760;28;20035;-75
2021/12/08 05:06:05;;;;;;;6.55;2.60;;;;;;;5.82;74.35;97521.00;4974905;28;20042;-76
2021/12/08 05:08:42;;;;;;;8.65;2.95;;;;;;;5.79;74.07;97518.59;4974300;28;20053;-77
2021/12/08 05:11:19;;;;;;;12.95;4.30;;;;;;;5.79;74.32;97522.97;4974638;28;20125;-76
2021/12/08 05:13:48;;;;;;;11.82;3.42;;;;;;;5.77;73.29;97525.69;4974539;28;20035;-76
2021/12/08 05:16:15;;;;;;;4.68;2.10;;;;;;;5.80;73.05;97515.03;4973456;28;20045;-76
2021/12/08 05:18:44;;;;;;;13.60;2.58;;;;;;;5.77;72.93;97519.63;4973599;28;20042;-77
2021/12/08 05:21:11;;;;;;;4.55;2.05;;;;;;;5.76;72.87;97523.19;4973975;28;20049;-77
2021/12/08 05:23:39;;;;;;;6.07;2.50;;;;;;;5.76;73.18;97523.19;4968387;28;20046;-76
2021/12/08 05:26:10;;;;;;;11.18;4.05;;;;;;;5.74;72.35;97528.50;4966069;28;20054;-76
2021/12/08 05:28:37;;;;;;;12.65;2.38;;;;;;;5.75;72.67;97534.56;4973238;28;20129;-77
2021/12/08 05:31:15;;;;;;;7.32;2.53;;;;;;;5.76;72.69;97533.66;4974955;28;20122;-77
2021/12/08 05:33:42;;;;;;;11.20;3.38;;;;;;;5.77;71.75;97545.78;4972078;28;20435;-77
2021/12/08 05:36:09;;;;;;;9.27;2.95;;;;;;;5.75;71.75;97538.03;4973812;28;20035;-77
2021/12/08 05:38:34;;;;;;;8.07;2.97;;;;;;;5.76;71.36;97549.34;4975156;28;20035;-76
2021/12/08 05:41:08;;;;;;;7.28;2.40;;;;;;;5.76;71.33;97542.31;4974555;28;20045;-77
2021/12/08 05:43:34;;;;;;;8.25;3.38;;;;;;;5.78;71.41;97557.91;4973366;28;20118;-77
2021/12/08 05:46:00;;;;;;;9.48;2.65;;;;;;;5.77;70.93;97556.22;4975718;28;20055;-77
2021/12/08 05:48:29;;;;;;;7.13;2.72;;;;;;;5.79;70.64;97549.13;4982489;28;20078;-77
2021/12/08 05:51:00;;;;;;;14.13;2.97;;;;;;;5.77;70.30;97549.22;4971354;28;20031;-77
2021/12/08 05:53:26;;;;;;;7.30;2.15;;;;;;;5.77;70.60;97546.59;4973749;28;20117;-77
2021/12/08 05:55:53;;;;;;;8.02;2.85;;;;;;;5.72;70.25;97543.47;4978937;28;20379;-77
2021/12/08 05:58:21;;;;;;;8.57;2.47;;;;;;;5.66;69.96;97546.50;4971603;28;20039;-77
2021/12/08 06:00:57;;;;;;;6.80;2.47;;;;;;;5.66;70.07;97549.09;4972672;28;20043;-77
2021/12/08 06:03:24;;;;;;;10.45;3.15;;;;;;;5.61;70.22;97556.38;4965321;28;20058;-77
2021/12/08 06:05:52;;;;;;;9.52;2.80;;;;;;;5.60;70.15;97554.72;4960913;28;20035;-77
2021/12/08 06:08:19;;;;;;;7.78;2.40;;;;;;;5.61;69.99;97556.38;4944109;28;20034;-75
2021/12/08 06:10:44;;;;;;;12.15;3.03;;;;;;;5.57;70.32;97555.75;4969269;28;20062;-78
2021/12/08 06:13:14;;;;;;;8.20;2.33;;;;;;;5.57;69.68;97567.97;4972226;28;20451;-76
2021/12/08 06:15:42;;;;;;;14.75;2.38;;;;;;;5.55;69.97;97564.63;4973330;28;20085;-75
2021/12/08 06:18:08;;;;;;;8.75;3.00;;;;;;;5.53;69.73;97564.72;4956882;28;20105;-76
2021/12/08 06:20:34;;;;;;;9.07;3.85;;;;;;;5.52;69.84;97563.06;4978063;28;20035;-77
2021/12/08 06:23:01;;;;;;;12.77;3.90;;;;;;;5.56;70.21;97571.53;4975590;28;20049;-75
2021/12/08 06:25:28;;;;;;;6.22;2.53;;;;;;;5.49;69.62;97573.72;4972260;28;20072;-75
2021/12/08 06:27:53;;;;;;;11.98;4.03;;;;;;;5.46;69.83;97579.09;4971701;28;20053;-74
2021/12/08 06:30:24;;;;;;;10.48;2.85;;;;;;;5.45;70.62;97581.84;4972583;28;20115;-76
2021/12/08 06:32:50;;;;;;;10.45;3.03;;;;;;;5.42;70.46;97572.44;4971576;28;20042;-75
2021/12/08 06:35:21;;;;;;;7.57;2.70;;;;;;;5.40;69.89;97574.28;4973163;28;20045;-77
2021/12/08 06:37:47;;;;;;;10.75;2.58;;;;;;;5.37;70.49;97564.03;4975458;28;20034;-75
2021/12/08 06:40:49;;;;;;;5.88;2.10;;;;;;;5.37;70.29;97574.50;4974168;28;20117;-78
2021/12/08 06:43:18;;;;;;;20.73;3.70;;;;;;;5.37;70.74;97564.03;4972876;28;20038;-75
2021/12/08 06:45:48;;;;;;;8.77;3.17;;;;;;;5.34;70.79;97562.47;4972417;28;20042;-77
2021/12/08 06:48:19;;;;;;;10.30;3.63;;;;;;;5.29;70.69;97567.16;4974199;28;20042;-76
2021/12/08 06:50:57;;;;;;;13.57;2.65;;;;;;;5.28;70.73;97573.28;4976951;28;20502;-78
2021/12/08 06:53:23;;;;;;;7.18;2.85;;;;;;;5.28;70.27;97568.06;4974248;28;20035;-77
2021/12/08 06:55:57;;;;;;;16.55;3.10;;;;;;;5.26;70.56;97564.69;4972667;28;20038;-77
2021/12/08 06:58:26;;;;;;;10.57;3.38;;;;;;;5.27;70.61;97576.03;4972272;28;20122;-77
2021/12/08 07:01:29;;;;;;;7.18;2.38;;;;;;;5.25;70.48;97572.66;4971895;28;20034;-77
2021/12/08 07:04:27;;;;;;;11.07;4.03;;;;;;;5.25;71.24;97562.22;4972679;28;20035;-77
2021/12/08 07:07:01;;;;;;;18.48;4.05;;;;;;;5.23;70.64;97561.47;4972282;28;20398;-77
2021/12/08 07:09:52;;;;;;;9.65;2.63;;;;;;;5.24;70.90;97569.22;4973470;28;20046;-71
2021/12/08 07:12:28;;;;;;;8.73;3.40;;;;;;;5.23;70.83;97577.13;4963002;28;20141;-72
2021/12/08 07:15:22;;;;;;;15.80;2.72;;;;;;;5.21;70.94;97572.00;4971056;28;20062;-72
2021/12/08 07:17:52;;;;;;;6.53;2.60;;;;;;;5.24;71.08;97570.97;4966177;28;20038;-71
2021/12/08 07:22:55;;;;;;;8.95;4.28;;;;;;;5.21;70.92;97565.94;4970847;28;20153;-72
2021/12/08 07:25:25;;;;;;;8.98;2.83;;;;;;;5.21;70.56;97566.78;4968960;28;20093;-71
2021/12/08 07:27:53;;;;;;;9.20;3.20;;;;;;;5.19;70.61;97563.41;4970788;28;20038;-71
2021/12/08 07:30:47;;;;;;;25.05;3.58;;;;;;;5.21;70.83;97581.63;4970952;28;20035;-71
2021/12/08 07:33:13;;;;;;;14.43;3.28;;;;;;;5.20;70.53;97599.06;4971125;28;20110;-69
2021/12/08 07:35:43;;;;;;;6.35;2.58;;;;;;;5.23;70.28;97598.03;4970793;28;20174;-71
2021/12/08 07:38:12;;;;;;;5.65;2.67;;;;;;;5.22;70.16;97614.63;4964740;28;20160;-71
2021/12/08 07:40:49;;;;;;;16.58;2.20;;;;;;;5.21;69.46;97612.97;4945234;28;20038;-70
2021/12/08 07:43:20;;;;;;;14.10;2.90;;;;;;;5.23;69.36;97608.47;4962152;28;20066;-71
2021/12/08 07:46:02;;;;;;;10.07;2.65;;;;;;;5.22;69.21;97610.25;4964584;28;20054;-71
2021/12/08 07:48:34;;;;;;;6.22;2.40;;;;;;;5.23;69.05;97609.31;4964646;28;20038;-70
2021/12/08 07:51:09;;;;;;;5.43;2.40;;;;;;;5.20;68.93;97626.97;4953926;28;20047;-71
2021/12/08 07:53:35;;;;;;;7.38;2.08;;;;;;;5.21;68.73;97620.78;4953360;28;20035;-71
2021/12/08 07:56:05;;;;;;;12.32;2.78;;;;;;;5.21;68.82;97611.19;4966069;28;20610;-78
2021/12/08 07:58:33;;;;;;;5.60;1.88;;;;;;;5.18;68.64;97610.53;4967679;28;20199;-76
2021/12/08 08:01:09;;;;;;;10.65;3.58;;;;;;;5.16;68.61;97608.84;4969771;28;20042;-77
2021/12/08 08:03:35;;;;;;;6.43;2.58;;;;;;;5.16;68.78;97610.63;4967333;28;20035;-77
2021/12/08 08:06:06;;;;;;;6.28;2.33;;;;;;;5.19;68.85;97625.28;4964107;28;20054;-77
2021/12/08 08:08:34;;;;;;;7.00;2.83;;;;;;;5.15;68.81;97627.25;4960405;28;20057;-76
2021/12/08 08:11:09;;;;;;;11.93;2.90;;;;;;;5.17;68.82;97628.00;4946138;28;20505;-77
2021/12/08 08:13:35;;;;;;;10.50;3.20;;;;;;;5.18;68.99;97628.81;4964809;28;20050;-77
2021/12/08 08:16:07;;;;;;;7.82;3.28;;;;;;;5.23;69.15;97635.44;4966812;28;20075;-78
2021/12/08 08:18:37;;;;;;;10.57;3.38;;;;;;;5.24;69.33;97639.75;4965385;28;20062;-75
2021/12/08 08:21:09;;;;;;;6.93;2.08;;;;;;;5.26;68.88;97631.78;4965125;28;20035;-76
2021/12/08 08:23:35;;;;;;;15.05;3.83;;;;;;;5.25;68.95;97632.75;4963376;28;20050;-75
2021/12/08 08:26:05;;;;;;;7.10;2.50;;;;;;;5.25;68.88;97630.97;4960110;28;20443;-76
2021/12/08 08:28:30;;;;;;;5.57;2.95;;;;;;;5.24;68.82;97631.91;4954812;28;20042;-76
2021/12/08 08:31:03;;;;;;;9.98;2.40;;;;;;;5.26;68.58;97634.41;4967526;28;20046;-78
2021/12/08 08:33:31;;;;;;;12.65;3.13;;;;;;;5.30;69.01;97636.72;4973290;28;20031;-77
2021/12/08 08:36:04;;;;;;;12.27;2.83;;;;;;;5.27;68.23;97642.16;4969206;28;20049;-75
2021/12/08 08:38:40;;;;;;;12.43;3.90;;;;;;;5.27;68.79;97660.44;4965817;28;20034;-77
2021/12/08 08:41:23;;;;;;;6.97;2.90;;;;;;;5.23;68.93;97652.88;4965019;28;20795;-77
2021/12/08 08:43:54;;;;;;;9.90;2.35;;;;;;;5.22;68.97;97653.81;4942353;28;20042;-78
2021/12/08 08:46:25;;;;;;;11.25;4.70;;;;;;;5.23;68.69;97661.56;4967401;28;20049;-76
2021/12/08 08:48:57;;;;;;;8.25;2.95;;;;;;;5.27;68.58;97649.16;4970166;28;20039;-76
2021/12/08 08:51:28;;;;;;;10.15;3.75;;;;;;;5.24;68.15;97641.50;4965306;28;20031;-77
2021/12/08 08:53:57;;;;;;;9.48;3.65;;;;;;;5.23;67.50;97640.66;4965656;28;20034;-78
2021/12/08 08:56:27;;;;;;;4.22;2.00;;;;;;;5.24;67.77;97663.25;4964680;28;20073;-77
2021/12/08 08:59:00;;;;;;;8.60;2.35;;;;;;;5.27;67.55;97670.91;4965185;28;20035;-77
2021/12/08 09:01:30;;;;;;;10.52;2.72;;;;;;;5.26;67.61;97663.97;4964132;28;20038;-77
2021/12/08 09:04:01;;;;;;;17.00;3.03;;;;;;;5.30;67.22;97660.25;4966884;28;20471;-77
2021/12/08 09:06:33;;;;;;;14.07;2.85;;;;;;;5.28;67.28;97663.88;4966650;28;20458;-76
2021/12/08 09:09:02;;;;;;;8.40;2.63;;;;;;;5.32;66.81;97660.16;4965817;28;20047;-76
2021/12/08 09:11:34;;;;;;;9.60;2.83;;;;;;;5.36;66.20;97643.34;4968277;28;20035;-77
2021/12/08 09:14:06;;;;;;;7.13;2.17;;;;;;;5.36;66.26;97648.56;4966357;28;20049;-77
2021/12/08 09:16:43;;;;;;;6.25;2.78;;;;;;;5.34;65.96;97639.97;4969781;28;20042;-76
2021/12/08 09:19:13;;;;;;;7.80;2.63;;;;;;;5.43;66.43;97630.75;4964520;28;20090;-78
2021/12/08 09:21:38;;;;;;;11.00;3.25;;;;;;;5.48;65.94;97636.50;4949420;28;20395;-78
2021/12/08 09:24:10;;;;;;;7.35;2.40;;;;;;;5.48;65.70;97636.50;4967732;28;20043;-77
2021/12/08 09:26:46;;;;;;;6.30;2.90;;;;;;;5.54;65.71;97631.75;4968238;28;20035;-78
2021/12/08 09:29:20;;;;;;;12.45;3.50;;;;;;;5.55;65.99;97624.75;4969645;28;20499;-78
2021/12/08 09:31:56;;;;;;;5.85;2.13;;;;;;;5.52;65.89;97624.94;4955652;28;20077;-78
2021/12/08 09:34:26;;;;;;;13.07;3.30;;;;;;;5.54;65.97;97621.28;4966000;28;20351;-75
2021/12/08 09:37:16;;;;;;;6.60;2.92;;;;;;;5.55;65.93;97615.13;4968457;28;20039;-75
2021/12/08 09:39:55;;;;;;;9.93;3.38;;;;;;;5.59;65.71;97615.78;4934922;28;20137;-74
2021/12/08 09:42:42;;;;;;;9.43;2.50;;;;;;;5.60;65.63;97605.19;4963092;28;20031;-76
2021/12/08 09:45:17;;;;;;;12.82;2.38;;;;;;;5.65;65.50;97614.53;4946296;28;20049;-76
2021/12/08 09:47:43;;;;;;;10.98;2.25;;;;;;;5.72;65.36;97614.03;4959162;28;20088;-77
2021/12/08 09:50:11;;;;;;;5.97;1.88;;;;;;;5.77;64.78;97605.91;4976857;28;20183;-78
2021/12/08 09:52:37;;;;;;;6.55;2.42;;;;;;;5.79;64.70;97611.88;4966768;28;20102;-78
2021/12/08 09:55:04;;;;;;;7.75;2.88;;;;;;;5.84;64.43;97607.19;4964008;28;20035;-77
2021/12/08 09:57:32;;;;;;;8.93;2.97;;;;;;;5.87;64.12;97620.06;4947604;28;20119;-76
2021/12/08 10:00:01;;;;;;;7.53;2.47;;;;;;;5.89;64.06;97628.63;4937075;28;20039;-77
2021/12/08 10:02:34;;;;;;;4.63;2.25;;;;;;;5.93;63.81;97624.03;4952260;28;20058;-77
2021/12/08 10:05:05;;;;;;;10.07;2.53;;;;;;;5.93;63.77;97626.66;4941074;28;20511;-77
2021/12/08 10:07:30;;;;;;;11.48;2.85;;;;;;;5.88;63.96;97632.22;4965264;28;20583;-78
2021/12/08 10:09:57;;;;;;;7.13;2.30;;;;;;;5.92;64.21;97651.97;4970648;28;20122;-78
2021/12/08 10:12:23;;;;;;;5.18;2.30;;;;;;;5.98;64.34;97646.38;4969395;28;20035;-76
2021/12/08 10:14:51;;;;;;;8.00;2.30;;;;;;;6.03;64.64;97648.72;4973940;28;20019;-78
2021/12/08 10:17:19;;;;;;;7.28;2.55;;;;;;;6.05;64.44;97644.19;4976095;28;20038;-77
2021/12/08 10:20:02;;;;;;;9.77;2.72;;;;;;;6.09;64.15;97650.06;4972234;28;20042;-77
2021/12/08 10:22:27;;;;;;;13.50;4.18;;;;;;;6.14;64.19;97648.81;4953945;28;20406;-78
2021/12/08 10:25:05;;;;;;;6.65;2.42;;;;;;;6.14;64.16;97654.06;4968695;28;20066;-79
2021/12/08 10:27:51;;;;;;;8.95;2.40;;;;;;;6.22;63.91;97661.41;4973015;28;20042;-76
2021/12/08 10:30:23;;;;;;;8.57;2.65;;;;;;;6.28;63.64;97652.34;4943458;28;20049;-78
2021/12/08 10:32:50;;;;;;;8.90;2.83;;;;;;;6.43;63.32;97662.59;4971540;28;20472;-78
2021/12/08 10:35:47;;;;;;;11.05;4.00;;;;;;;6.57;62.43;97673.94;4968265;28;20093;-78
2021/12/08 10:38:16;;;;;;;8.55;2.58;;;;;;;6.57;62.55;97685.25;4970279;28;20035;-79
2021/12/08 10:41:04;;;;;;;7.80;4.25;;;;;;;6.56;62.15;97701.88;4968232;28;20031;-79
2021/12/08 10:43:30;;;;;;;10.55;4.20;;;;;;;6.49;62.67;97690.16;4967098;28;20065;-77
2021/12/08 10:46:13;;;;;;;7.43;3.35;;;;;;;6.45;62.48;97694.75;4966394;28;20306;-79
2021/12/08 10:48:44;;;;;;;11.05;3.70;;;;;;;6.44;62.48;97692.22;4949010;28;20039;-79
2021/12/08 10:54:30;;;;;;;11.07;3.25;;;;;;;6.50;62.39;97685.75;4944980;28;20466;-78
2021/12/08 10:56:57;;;;;;;5.10;2.50;;;;;;;6.53;62.25;97681.16;4959390;28;20443;-77
2021/12/08 10:59:53;;;;;;;10.38;2.85;;;;;;;6.60;61.96;97692.06;4966973;28;20117;-78
2021/12/08 11:02:37;;;;;;;7.47;2.58;;;;;;;6.68;61.42;97687.16;4965744;28;20035;-80
2021/12/08 11:05:08;;;;;;;13.82;4.35;;;;;;;6.73;61.74;97689.47;4968670;28;20038;-76
2021/12/08 11:07:33;;;;;;;6.30;2.38;;;;;;;6.76;61.12;97691.88;4973887;28;20066;-75
2021/12/08 11:10:16;;;;;;;5.95;2.15;;;;;;;6.78;61.36;97692.59;4972881;28;20193;-76
2021/12/08 11:12:42;;;;;;;8.05;3.05;;;;;;;6.76;61.60;97687.47;4966339;28;20372;-77
2021/12/08 11:15:22;;;;;;;10.50;2.67;;;;;;;6.73;61.98;97695.53;4952318;28;20085;-75
2021/12/08 11:17:48;;;;;;;7.63;2.08;;;;;;;6.81;61.52;97710.72;4952326;28;20043;-76
2021/12/08 11:20:29;;;;;;;6.35;2.47;;;;;;;6.84;61.67;97710.50;4965634;28;20049;-75
2021/12/08 11:23:03;;;;;;;8.88;2.80;;;;;;;6.97;61.48;97715.78;4966067;28;20034;-77
2021/12/08 11:25:39;;;;;;;5.45;1.88;;;;;;;7.02;60.64;97724.16;4965150;28;20054;-75
2021/12/08 11:28:33;;;;;;;10.65;2.40;;;;;;;6.99;60.65;97721.72;4964308;28;20046;-76
2021/12/08 11:31:06;;;;;;;7.78;3.75;;;;;;;6.98;60.08;97718.28;4965421;28;20054;-76
2021/12/08 11:33:31;;;;;;;7.82;2.20;;;;;;;7.03;60.02;97723.22;4965646;28;20066;-76
2021/12/08 11:36:16;;;;;;;4.35;2.28;;;;;;;7.14;60.42;97712.00;4964484;28;20141;-77
2021/12/08 11:38:43;;;;;;;7.28;2.35;;;;;;;7.21;60.45;97702.75;4969774;28;20050;-76
2021/12/08 11:41:37;;;;;;;8.70;2.60;;;;;;;7.20;59.33;97716.81;4974428;28;20409;-78
2021/12/08 11:44:20;;;;;;;5.00;1.75;;;;;;;7.06;59.18;97715.13;4957429;28;20035;-77
2021/12/08 11:46:54;;;;;;;9.90;2.13;;;;;;;6.88;59.07;97717.22;4976838;28;20045;-76
2021/12/08 11:49:20;;;;;;;10.27;2.83;;;;;;;6.89;59.33;97724.13;4967649;28;20607;-75
2021/12/08 11:51:46;;;;;;;6.03;2.88;;;;;;;6.93;58.76;97722.16;4953186;28;20122;-76
2021/12/08 11:54:24;;;;;;;7.30;2.25;;;;;;;7.06;58.70;97734.34;4954566;28;20138;-76
2021/12/08 11:56:50;;;;;;;6.00;2.53;;;;;;;7.10;58.07;97730.53;4961804;28;20033;-78
2021/12/08 11:59:15;;;;;;;8.18;4.10;;;;;;;7.20;57.94;97728.13;4962967;28;20035;-76
2021/12/08 12:01:41;;;;;;;9.05;3.00;;;;;;;7.33;57.72;97720.25;4965053;28;20466;-76
2021/12/08 12:04:09;;;;;;;5.35;1.92;;;;;;;7.34;57.64;97721.13;4964994;28;20035;-75
2021/12/08 12:06:35;;;;;;;5.63;1.50;;;;;;;7.34;57.42;97718.50;4954240;28;20046;-75
2021/12/08 12:09:02;;;;;;;4.20;1.70;;;;;;;7.33;57.30;97720.25;4962763;28;20046;-75
2021/12/08 12:11:29;;;;;;;7.05;1.83;;;;;;;7.25;57.80;97726.03;4963689;28;20035;-76
2021/12/08 12:13:59;;;;;;;7.13;3.15;;;;;;;7.22;57.00;97721.00;4955036;28;20044;-77
2021/12/08 12:16:26;;;;;;;8.73;2.10;;;;;;;7.19;57.34;97723.84;4964165;28;20053;-76
2021/12/08 12:18:54;;;;;;;4.80;1.65;;;;;;;7.18;57.29;97732.63;4964846;28;20086;-74
2021/12/08 12:21:40;;;;;;;4.50;2.05;;;;;;;7.23;57.37;97737.56;4965040;28;20093;-75
2021/12/08 12:24:27;;;;;;;4.10;1.85;;;;;;;7.31;57.46;97743.16;4980653;28;20097;-77
2021/12/08 12:27:14;;;;;;;4.88;2.28;;;;;;;7.38;57.28;97748.78;4964726;28;20093;-77
2021/12/08 12:29:56;;;;;;;7.82;2.47;;;;;;;7.45;56.59;97755.28;4950319;28;20415;-77
2021/12/08 12:32:26;;;;;;;4.75;2.25;;;;;;;7.43;56.81;97768.50;4965415;28;20093;-77
2021/12/08 12:35:09;;;;;;;7.72;2.70;;;;;;;7.34;56.59;97766.50;4963400;28;20054;-76
2021/12/08 12:37:37;;;;;;;4.03;1.85;;;;;;;7.37;56.86;97770.72;4965144;28;20058;-76
2021/12/08 12:40:08;;;;;;;10.73;2.00;;;;;;;7.38;56.95;97773.19;4962525;28;20055;-75
2021/12/08 12:42:44;;;;;;;10.60;1.73;;;;;;;7.40;56.26;97765.25;4961572;28;20046;-76